Time,TemperatureF,DewpointF,PressureIn,WindDirection,WindDirectionDegrees,WindSpeedMPH,WindSpeedGustMPH,Humidity,HourlyPrecipIn,Conditions,Clouds,dailyrainin,SoftwareType,DateUTC
2013-01-26 00:02:00,13.0,9.0,-100.00,East,100,2.0,4.0,85,0.00,,,-99.99,,2013-01-26 06:02:00,
2013-01-26 00:12:00,13.0,9.0,-100.00,East,100,4.0,6.0,85,0.00,,,-99.99,,2013-01-26 06:12:00,
2013-01-26 00:21:00,12.0,9.0,-100.00,East,90,3.0,6.0,85,0.00,,,-99.99,,2013-01-26 06:21:00,
2013-01-26 00:31:00,11.0,8.0,-100.00,East,80,3.0,5.0,85,0.00,,,-99.99,,2013-01-26 06:31:00,
2013-01-26 00:41:00,11.0,8.0,-100.00,East,80,3.0,5.0,85,0.00,,,-99.99,,2013-01-26 06:41:00,
2013-01-26 00:51:00,11.0,8.0,-100.00,East,90,3.0,6.0,85,0.00,,,-99.99,,2013-01-26 06:51:00,
2013-01-26 01:02:00,11.0,8.0,-100.00,East,90,3.0,6.0,85,0.00,,,-99.99,,2013-01-26 07:02:00,
2013-01-26 01:21:00,11.0,8.0,-100.00,East,85,1.0,4.0,85,0.00,,,-99.99,,2013-01-26 07:21:00,
2013-01-26 01:33:00,11.0,7.0,-100.00,ESE,115,0.0,1.0,86,0.00,,,-99.99,,2013-01-26 07:33:00,
2013-01-26 01:41:00,11.0,7.0,-100.00,ESE,115,1.0,1.0,86,0.00,,,-99.99,,2013-01-26 07:41:00,
2013-01-26 01:51:00,11.0,8.0,-100.00,South,170,1.0,4.0,87,0.00,,,-99.99,,2013-01-26 07:51:00,
2013-01-26 02:02:00,11.0,8.0,-100.00,SE,125,3.0,5.0,87,0.00,,,-99.99,,2013-01-26 08:02:00,
2013-01-26 02:11:00,11.0,8.0,-100.00,SE,135,4.0,7.0,86,0.00,,,-99.99,,2013-01-26 08:11:00,
2013-01-26 02:21:00,11.0,8.0,-100.00,SE,130,5.0,7.0,86,0.00,,,-99.99,,2013-01-26 08:21:00,
2013-01-26 02:32:00,11.0,7.0,-100.00,SE,130,5.0,7.0,85,0.00,,,-99.99,,2013-01-26 08:32:00,
2013-01-26 02:53:00,11.0,8.0,-100.00,SE,125,3.0,5.0,86,0.00,,,-99.99,,2013-01-26 08:53:00,
2013-01-26 03:02:00,11.0,7.0,-100.00,SSE,165,0.0,4.0,86,0.00,,,-99.99,,2013-01-26 09:02:00,
2013-01-26 03:11:00,10.0,7.0,-100.00,ESE,110,5.0,6.0,86,0.00,,,-99.99,,2013-01-26 09:11:00,
2013-01-26 03:22:00,10.0,7.0,-100.00,ESE,110,5.0,6.0,86,0.00,,,-99.99,,2013-01-26 09:22:00,
2013-01-26 03:32:00,10.0,7.0,-100.00,ESE,115,4.0,6.0,85,0.00,,,-99.99,,2013-01-26 09:32:00,
2013-01-26 03:42:00,10.0,7.0,-100.00,SE,125,3.0,6.0,85,0.00,,,-99.99,,2013-01-26 09:42:00,
2013-01-26 03:51:00,10.0,6.0,-100.00,ESE,120,3.0,4.0,85,0.00,,,-99.99,,2013-01-26 09:51:00,
2013-01-26 04:01:00,10.0,6.0,-100.00,SE,130,2.0,4.0,85,0.00,,,-99.99,,2013-01-26 10:01:00,
2013-01-26 04:11:00,9.0,6.0,-100.00,SE,130,4.0,5.0,86,0.00,,,-99.99,,2013-01-26 10:11:00,
2013-01-26 04:21:00,9.0,6.0,-100.00,SE,130,4.0,5.0,86,0.00,,,-99.99,,2013-01-26 10:21:00,
2013-01-26 04:31:00,9.0,6.0,-100.00,SE,140,3.0,6.0,86,0.00,,,-99.99,,2013-01-26 10:31:00,
2013-01-26 04:42:00,9.0,6.0,-100.00,SE,140,3.0,6.0,86,0.00,,,-99.99,,2013-01-26 10:42:00,
2013-01-26 04:52:00,9.0,6.0,-100.00,SE,145,7.0,9.0,86,0.00,,,-99.99,,2013-01-26 10:52:00,
2013-01-26 05:01:00,9.0,6.0,-100.00,SE,130,7.0,11.0,85,0.00,,,-99.99,,2013-01-26 11:01:00,
2013-01-26 05:12:00,9.0,6.0,-100.00,SE,145,4.0,11.0,85,0.00,,,-99.99,,2013-01-26 11:12:00,
2013-01-26 05:22:00,9.0,6.0,-100.00,SE,135,3.0,11.0,85,0.00,,,-99.99,,2013-01-26 11:22:00,
2013-01-26 05:32:00,9.0,6.0,-100.00,SE,140,4.0,6.0,85,0.00,,,-99.99,,2013-01-26 11:32:00,
2013-01-26 05:52:00,9.0,6.0,-100.00,SSE,155,2.0,6.0,85,0.00,,,-99.99,,2013-01-26 11:52:00,
2013-01-26 06:02:00,9.0,6.0,-100.00,South,185,1.0,6.0,85,0.00,,,-99.99,,2013-01-26 12:02:00,
2013-01-26 06:12:00,9.0,6.0,-100.00,South,180,5.0,8.0,85,0.00,,,-99.99,,2013-01-26 12:12:00,
2013-01-26 06:22:00,9.0,6.0,-100.00,South,190,2.0,8.0,85,0.00,,,-99.99,,2013-01-26 12:22:00,
2013-01-26 06:33:00,9.0,6.0,-100.00,SSE,160,6.0,10.0,84,0.00,,,-99.99,,2013-01-26 12:33:00,
2013-01-26 06:42:00,9.0,6.0,-100.00,SE,145,4.0,10.0,84,0.00,,,-99.99,,2013-01-26 12:42:00,
2013-01-26 06:52:00,10.0,6.0,-100.00,South,190,2.0,12.0,84,0.00,,,-99.99,,2013-01-26 12:52:00,
2013-01-26 07:03:00,10.0,6.0,-100.00,South,190,2.0,12.0,84,0.00,,,-99.99,,2013-01-26 13:03:00,
2013-01-26 07:12:00,10.0,6.0,-100.00,South,180,5.0,11.0,84,0.00,,,-99.99,,2013-01-26 13:12:00,
2013-01-26 07:22:00,10.0,6.0,-100.00,South,190,4.0,10.0,84,0.00,,,-99.99,,2013-01-26 13:22:00,
2013-01-26 07:32:00,10.0,6.0,-100.00,SE,130,3.0,9.0,84,0.00,,,-99.99,,2013-01-26 13:32:00,
2013-01-26 07:42:00,10.0,6.0,-100.00,SW,225,2.0,7.0,84,0.00,,,-99.99,,2013-01-26 13:42:00,
2013-01-26 07:52:00,10.0,6.0,-100.00,South,175,3.0,9.0,84,0.00,,,-99.99,,2013-01-26 13:52:00,
2013-01-26 08:11:00,10.0,6.0,-100.00,SSW,200,4.0,11.0,84,0.00,,,-99.99,,2013-01-26 14:11:00,
2013-01-26 08:21:00,10.0,6.0,-100.00,SSW,200,4.0,11.0,84,0.00,,,-99.99,,2013-01-26 14:21:00,
2013-01-26 08:32:00,11.0,7.0,-100.00,SSW,210,2.0,8.0,84,0.00,,,-99.99,,2013-01-26 14:32:00,
2013-01-26 08:43:00,11.0,7.0,-100.00,SSW,210,2.0,8.0,84,0.00,,,-99.99,,2013-01-26 14:43:00,
2013-01-26 08:53:00,12.0,8.0,-100.00,SSW,210,6.0,11.0,82,0.00,,,-99.99,,2013-01-26 14:53:00,
2013-01-26 09:02:00,12.0,8.0,-100.00,SSW,210,6.0,11.0,82,0.00,,,-99.99,,2013-01-26 15:02:00,
2013-01-26 09:12:00,12.0,8.0,-100.00,SW,225,6.0,12.0,82,0.00,,,-99.99,,2013-01-26 15:12:00,
2013-01-26 09:22:00,13.0,8.0,-100.00,SW,225,8.0,13.0,82,0.00,,,-99.99,,2013-01-26 15:22:00,
2013-01-26 09:32:00,15.0,10.0,-100.00,SSW,210,8.0,14.0,79,0.00,,,-99.99,,2013-01-26 15:32:00,
2013-01-26 09:43:00,15.0,10.0,-100.00,SSW,210,8.0,14.0,79,0.00,,,-99.99,,2013-01-26 15:43:00,
2013-01-26 09:52:00,16.0,10.0,-100.00,SW,215,11.0,16.0,77,0.00,,,-99.99,,2013-01-26 15:52:00,
2013-01-26 10:02:00,16.0,10.0,-100.00,SW,215,11.0,16.0,77,0.00,,,-99.99,,2013-01-26 16:02:00,
2013-01-26 10:12:00,18.0,11.0,-100.00,SW,230,11.0,18.0,75,0.00,,,-99.99,,2013-01-26 16:12:00,
2013-01-26 10:22:00,18.0,11.0,-100.00,SW,220,9.0,18.0,74,0.00,,,-99.99,,2013-01-26 16:22:00,
2013-01-26 10:32:00,19.0,12.0,-100.00,SW,220,7.0,17.0,73,0.00,,,-99.99,,2013-01-26 16:32:00,
2013-01-26 10:42:00,20.0,13.0,-100.00,SSW,200,4.0,14.0,72,0.00,,,-99.99,,2013-01-26 16:42:00,
2013-01-26 10:53:00,21.0,13.0,-100.00,SW,225,10.0,16.0,71,0.00,,,-99.99,,2013-01-26 16:53:00,
2013-01-26 11:12:00,23.0,14.0,-100.00,SW,220,9.0,16.0,69,0.00,,,-99.99,,2013-01-26 17:12:00,
2013-01-26 11:22:00,24.0,15.0,-100.00,SW,220,9.0,18.0,68,0.00,,,-99.99,,2013-01-26 17:22:00,
2013-01-26 11:33:00,26.0,16.0,-100.00,SW,225,11.0,19.0,66,0.00,,,-99.99,,2013-01-26 17:33:00,
2013-01-26 11:42:00,26.0,16.0,-100.00,SW,225,11.0,19.0,66,0.00,,,-99.99,,2013-01-26 17:42:00,
2013-01-26 11:52:00,28.0,17.0,-100.00,SW,235,13.0,21.0,64,0.00,,,-99.99,,2013-01-26 17:52:00,
2013-01-26 12:02:00,28.0,17.0,-100.00,SSW,210,11.0,17.0,63,0.00,,,-99.99,,2013-01-26 18:02:00,
2013-01-26 12:12:00,31.0,19.0,-100.00,SW,235,14.0,21.0,62,0.00,,,-99.99,,2013-01-26 18:12:00,
2013-01-26 12:22:00,31.0,19.0,-100.00,SW,235,14.0,21.0,62,0.00,,,-99.99,,2013-01-26 18:22:00,
2013-01-26 12:33:00,29.0,18.0,-100.00,SW,225,12.0,20.0,62,0.00,,,-99.99,,2013-01-26 18:33:00,
2013-01-26 12:42:00,30.0,19.0,-100.00,SW,235,12.0,19.0,62,0.00,,,-99.99,,2013-01-26 18:42:00,
2013-01-26 12:52:00,32.0,20.0,-100.00,SW,225,11.0,15.0,61,0.00,,,-99.99,,2013-01-26 18:52:00,
2013-01-26 13:03:00,32.0,20.0,-100.00,SW,225,11.0,15.0,61,0.00,,,-99.99,,2013-01-26 19:03:00,
2013-01-26 13:12:00,32.0,20.0,-100.00,SW,225,11.0,17.0,61,0.00,,,-99.99,,2013-01-26 19:12:00,
2013-01-26 13:22:00,33.0,21.0,-100.00,SW,220,9.0,18.0,61,0.00,,,-99.99,,2013-01-26 19:22:00,
2013-01-26 13:32:00,33.0,21.0,-100.00,SW,230,10.0,19.0,60,0.00,,,-99.99,,2013-01-26 19:32:00,
2013-01-26 13:42:00,33.0,22.0,-100.00,SW,230,12.0,17.0,61,0.00,,,-99.99,,2013-01-26 19:42:00,
2013-01-26 13:52:00,34.0,22.0,-100.00,SW,220,11.0,16.0,60,0.00,,,-99.99,,2013-01-26 19:52:00,
2013-01-26 14:02:00,34.0,22.0,-100.00,SW,230,10.0,16.0,60,0.00,,,-99.99,,2013-01-26 20:02:00,
2013-01-26 14:11:00,35.0,22.0,-100.00,SW,225,12.0,15.0,60,0.00,,,-99.99,,2013-01-26 20:11:00,
2013-01-26 14:21:00,35.0,22.0,-100.00,SW,225,12.0,15.0,60,0.00,,,-99.99,,2013-01-26 20:21:00,
2013-01-26 14:32:00,37.0,24.0,-100.00,SW,225,10.0,19.0,58,0.00,,,-99.99,,2013-01-26 20:32:00,
2013-01-26 14:42:00,37.0,24.0,-100.00,SW,225,10.0,19.0,58,0.00,,,-99.99,,2013-01-26 20:42:00,
2013-01-26 14:52:00,38.0,24.0,-100.00,SW,230,12.0,17.0,57,0.00,,,-99.99,,2013-01-26 20:52:00,
2013-01-26 15:02:00,38.0,24.0,-100.00,WSW,240,12.0,19.0,57,0.00,,,-99.99,,2013-01-26 21:02:00,
2013-01-26 15:22:00,40.0,25.0,-100.00,SW,225,16.0,21.0,55,0.00,,,-99.99,,2013-01-26 21:22:00,
2013-01-26 15:32:00,43.0,27.0,-100.00,SW,225,13.0,23.0,52,0.00,,,-99.99,,2013-01-26 21:32:00,
2013-01-26 15:42:00,43.0,27.0,-100.00,SW,225,13.0,23.0,52,0.00,,,-99.99,,2013-01-26 21:42:00,
2013-01-26 15:51:00,43.0,26.0,-100.00,SW,235,8.0,15.0,50,0.00,,,-99.99,,2013-01-26 21:51:00,
2013-01-26 16:11:00,43.0,26.0,-100.00,SW,235,19.0,24.0,50,0.00,,,-99.99,,2013-01-26 22:11:00,
2013-01-26 16:21:00,43.0,26.0,-100.00,SW,235,19.0,24.0,50,0.00,,,-99.99,,2013-01-26 22:21:00,
2013-01-26 16:32:00,42.0,26.0,-100.00,SW,235,17.0,22.0,52,0.00,,,-99.99,,2013-01-26 22:32:00,
2013-01-26 16:42:00,42.0,26.0,-100.00,WSW,240,18.0,21.0,52,0.00,,,-99.99,,2013-01-26 22:42:00,
2013-01-26 16:51:00,42.0,26.0,-100.00,SW,235,14.0,22.0,52,0.00,,,-99.99,,2013-01-26 22:51:00,
2013-01-26 17:01:00,41.0,26.0,-100.00,SW,235,13.0,17.0,53,0.00,,,-99.99,,2013-01-26 23:01:00,
2013-01-26 17:11:00,41.0,26.0,-100.00,SW,235,12.0,17.0,54,0.00,,,-99.99,,2013-01-26 23:11:00,
2013-01-26 17:22:00,41.0,26.0,-100.00,SW,225,7.0,16.0,54,0.00,,,-99.99,,2013-01-26 23:22:00,
2013-01-26 17:32:00,40.0,25.0,-100.00,SW,215,3.0,7.0,54,0.00,,,-99.99,,2013-01-26 23:32:00,
2013-01-26 17:41:00,40.0,25.0,-100.00,SW,215,6.0,9.0,54,0.00,,,-99.99,,2013-01-26 23:41:00,
2013-01-26 17:52:00,39.0,25.0,-100.00,SW,220,4.0,9.0,55,0.00,,,-99.99,,2013-01-26 23:52:00,
2013-01-26 18:02:00,38.0,24.0,-100.00,SSW,195,4.0,10.0,57,0.00,,,-99.99,,2013-01-27 00:02:00,
2013-01-26 18:11:00,37.0,24.0,-100.00,SSW,205,4.0,7.0,58,0.00,,,-99.99,,2013-01-27 00:11:00,
2013-01-26 18:21:00,37.0,24.0,-100.00,SSW,210,6.0,9.0,59,0.00,,,-99.99,,2013-01-27 00:21:00,
2013-01-26 18:32:00,37.0,24.0,-100.00,SW,215,7.0,11.0,59,0.00,,,-99.99,,2013-01-27 00:32:00,
2013-01-26 18:51:00,35.0,24.0,-100.00,SW,230,4.0,7.0,62,0.00,,,-99.99,,2013-01-27 00:51:00,
2013-01-26 19:01:00,35.0,24.0,-100.00,SW,230,4.0,7.0,62,0.00,,,-99.99,,2013-01-27 01:01:00,
2013-01-26 19:11:00,36.0,24.0,-100.00,SW,215,6.0,9.0,62,0.00,,,-99.99,,2013-01-27 01:11:00,
2013-01-26 19:22:00,36.0,24.0,-100.00,SW,235,4.0,10.0,62,0.00,,,-99.99,,2013-01-27 01:22:00,
2013-01-26 19:32:00,34.0,24.0,-100.00,WSW,245,4.0,6.0,65,0.00,,,-99.99,,2013-01-27 01:32:00,
2013-01-26 19:41:00,34.0,24.0,-100.00,WSW,245,4.0,6.0,65,0.00,,,-99.99,,2013-01-27 01:41:00,
2013-01-26 19:51:00,34.0,24.0,-100.00,SW,220,5.0,7.0,67,0.00,,,-99.99,,2013-01-27 01:51:00,
2013-01-26 20:01:00,34.0,24.0,-100.00,SW,220,5.0,7.0,67,0.00,,,-99.99,,2013-01-27 02:01:00,
2013-01-26 20:11:00,33.0,24.0,-100.00,SW,220,6.0,8.0,69,0.00,,,-99.99,,2013-01-27 02:11:00,
2013-01-26 20:21:00,34.0,25.0,-100.00,SW,215,6.0,11.0,69,0.00,,,-99.99,,2013-01-27 02:21:00,
2013-01-26 20:31:00,36.0,26.0,-100.00,SW,215,7.0,12.0,66,0.00,,,-99.99,,2013-01-27 02:31:00,
2013-01-26 20:41:00,36.0,26.0,-100.00,SW,215,7.0,12.0,66,0.00,,,-99.99,,2013-01-27 02:41:00,
2013-01-26 20:52:00,36.0,26.0,-100.00,SW,220,7.0,13.0,65,0.00,,,-99.99,,2013-01-27 02:52:00,
2013-01-26 21:02:00,36.0,26.0,-100.00,SW,220,7.0,13.0,65,0.00,,,-99.99,,2013-01-27 03:02:00,
2013-01-26 21:11:00,36.0,26.0,-100.00,SW,220,7.0,12.0,65,0.00,,,-99.99,,2013-01-27 03:11:00,
2013-01-26 21:21:00,36.0,26.0,-100.00,SSW,205,7.0,11.0,65,0.00,,,-99.99,,2013-01-27 03:21:00,
2013-01-26 21:32:00,35.0,26.0,-100.00,SW,225,7.0,12.0,66,0.00,,,-99.99,,2013-01-27 03:32:00,
2013-01-26 21:42:00,35.0,26.0,-100.00,SW,225,7.0,12.0,66,0.00,,,-99.99,,2013-01-27 03:42:00,
2013-01-26 21:51:00,35.0,25.0,-100.00,SW,220,7.0,10.0,67,0.00,,,-99.99,,2013-01-27 03:51:00,
2013-01-26 22:01:00,35.0,25.0,-100.00,SW,225,7.0,11.0,67,0.00,,,-99.99,,2013-01-27 04:01:00,
2013-01-26 22:11:00,35.0,25.0,-100.00,SW,215,6.0,11.0,67,0.00,,,-99.99,,2013-01-27 04:11:00,
2013-01-26 22:21:00,35.0,25.0,-100.00,SW,220,7.0,12.0,68,0.00,,,-99.99,,2013-01-27 04:21:00,
2013-01-26 22:32:00,34.0,25.0,-100.00,SW,215,6.0,12.0,68,0.00,,,-99.99,,2013-01-27 04:32:00,
2013-01-26 22:41:00,34.0,25.0,-100.00,SW,235,6.0,11.0,68,0.00,,,-99.99,,2013-01-27 04:41:00,
2013-01-26 22:51:00,34.0,25.0,-100.00,SW,220,4.0,7.0,68,0.00,,,-99.99,,2013-01-27 04:51:00,
2013-01-26 23:03:00,35.0,26.0,-100.00,SW,235,5.0,7.0,68,0.00,,,-99.99,,2013-01-27 05:03:00,
2013-01-26 23:12:00,35.0,26.0,-100.00,SW,225,6.0,10.0,68,0.00,,,-99.99,,2013-01-27 05:12:00,
2013-01-26 23:22:00,35.0,26.0,-100.00,SW,220,6.0,10.0,68,0.00,,,-99.99,,2013-01-27 05:22:00,
2013-01-26 23:32:00,37.0,26.0,-100.00,SW,220,7.0,10.0,66,0.00,,,-99.99,,2013-01-27 05:32:00,
2013-01-26 23:41:00,37.0,26.0,-100.00,SW,220,7.0,10.0,66,0.00,,,-99.99,,2013-01-27 05:41:00,
2013-01-26 23:52:00,37.0,27.0,-100.00,SW,215,8.0,13.0,65,0.00,,,-99.99,,2013-01-27 05:52:00,